Time;durP1;ratioP1;P1;durP2;ratioP2;P2;SDS_P1;SDS_P2;PMS_P1;PMS_P2;Temp;Humidity;BMP_temperature;BMP_pressure;BME280_temperature;BME280_humidity;BME280_pressure;Samples;Min_cycle;Max_cycle;Signal;HPM_P1;HPM_P2
2023/05/06 00:02:34;;;;;;;4.97;2.53;;;26.00;99.90;;;;;;5007471;28;20112;-44
2023/05/06 00:05:00;;;;;;;3.90;2.65;;;26.00;99.90;;;;;;5006757;28;20022;-44
2023/05/06 00:07:25;;;;;;;3.67;2.60;;;26.00;99.90;;;;;;5010035;28;20463;-44
2023/05/06 00:09:51;;;;;;;4.28;3.00;;;26.00;99.90;;;;;;5006927;28;20392;-44
2023/05/06 00:12:17;;;;;;;4.10;2.38;;;26.00;99.90;;;;;;5011207;28;20026;-44
2023/05/06 00:14:43;;;;;;;6.03;2.28;;;26.00;99.90;;;;;;5010943;28;20041;-44
2023/05/06 00:17:09;;;;;;;3.03;2.55;;;26.00;99.90;;;;;;5007215;28;20072;-43
2023/05/06 00:19:35;;;;;;;5.65;2.40;;;26.00;99.90;;;;;;5011365;28;20040;-43
2023/05/06 00:22:00;;;;;;;4.45;3.25;;;26.00;99.90;;;;;;5009531;28;20018;-48
2023/05/06 00:24:26;;;;;;;6.32;3.08;;;26.00;99.90;;;;;;5010714;28;20095;-44
2023/05/06 00:26:52;;;;;;;5.10;2.90;;;25.90;99.90;;;;;;5010741;28;20022;-44
2023/05/06 00:29:18;;;;;;;3.60;2.05;;;25.90;99.90;;;;;;5011145;28;20113;-44
2023/05/06 00:31:44;;;;;;;4.03;2.38;;;26.00;99.90;;;;;;5010807;28;20164;-45
2023/05/06 00:34:10;;;;;;;5.18;2.67;;;26.00;99.90;;;;;;5010897;28;20457;-44
2023/05/06 00:36:36;;;;;;;5.40;2.65;;;25.90;99.90;;;;;;5010704;28;20353;-45
2023/05/06 00:39:02;;;;;;;4.18;2.72;;;25.90;99.90;;;;;;5010577;28;20117;-45
2023/05/06 00:41:32;;;;;;;5.05;2.70;;;25.90;99.90;;;;;;5007033;28;20022;-45
2023/05/06 00:43:58;;;;;;;4.97;2.67;;;25.90;99.90;;;;;;5007676;28;20034;-45
2023/05/06 00:46:24;;;;;;;4.32;2.67;;;25.90;99.90;;;;;;5003280;28;20018;-47
2023/05/06 00:48:50;;;;;;;4.07;3.03;;;25.90;99.90;;;;;;5002724;28;20116;-45
2023/05/06 00:51:16;;;;;;;6.82;3.00;;;25.90;99.90;;;;;;5008559;28;20026;-45
2023/05/06 00:53:45;;;;;;;4.05;3.00;;;25.90;99.90;;;;;;5007200;28;20038;-45
2023/05/06 00:56:11;;;;;;;3.85;2.45;;;25.90;99.90;;;;;;5010609;28;20034;-44
2023/05/06 00:58:37;;;;;;;4.25;2.70;;;25.90;99.90;;;;;;5005675;28;20032;-44
2023/05/06 01:01:04;;;;;;;5.85;2.97;;;25.90;99.90;;;;;;4999710;28;20531;-44
2023/05/06 01:03:30;;;;;;;5.55;3.10;;;25.90;99.90;;;;;;5003838;28;20022;-44
2023/05/06 01:06:25;;;;;;;4.88;2.78;;;25.90;99.90;;;;;;4996797;28;20431;-44
2023/05/06 01:08:56;;;;;;;6.88;3.38;;;25.90;99.90;;;;;;5010781;28;20385;-44
2023/05/06 01:11:44;;;;;;;5.22;3.50;;;25.90;99.90;;;;;;5012249;28;20376;-44
2023/05/06 01:14:10;;;;;;;6.32;3.45;;;25.90;99.90;;;;;;5011878;28;20030;-44
2023/05/06 01:16:40;;;;;;;6.03;3.17;;;25.90;99.90;;;;;;5012500;28;20018;-44
2023/05/06 01:19:10;;;;;;;5.75;4.07;;;25.90;99.90;;;;;;5012758;28;20057;-44
2023/05/06 01:21:40;;;;;;;6.13;3.53;;;25.90;99.90;;;;;;5012155;28;20456;-44
2023/05/06 01:24:06;;;;;;;5.38;3.65;;;25.90;99.90;;;;;;5012395;28;20030;-44
2023/05/06 01:26:32;;;;;;;6.70;3.47;;;25.90;99.90;;;;;;5011178;28;20076;-44
2023/05/06 01:28:58;;;;;;;6.88;3.90;;;25.80;99.90;;;;;;5012474;28;20423;-44
2023/05/06 01:31:44;;;;;;;6.13;4.20;;;25.80;99.90;;;;;;5012479;28;20025;-44
2023/05/06 01:34:33;;;;;;;7.97;4.15;;;25.80;99.90;;;;;;5012164;28;20045;-44
2023/05/06 01:37:08;;;;;;;6.20;4.22;;;25.80;99.90;;;;;;5012330;28;20469;-44
2023/05/06 01:39:33;;;;;;;7.78;4.20;;;25.80;99.90;;;;;;5012278;28;20026;-44
2023/05/06 01:42:01;;;;;;;6.25;3.90;;;25.80;99.90;;;;;;5012275;28;20026;-44
2023/05/06 01:44:30;;;;;;;6.38;4.28;;;25.80;99.90;;;;;;5010866;28;20116;-45
2023/05/06 01:46:57;;;;;;;6.85;4.57;;;25.80;99.90;;;;;;5012327;28;20026;-44
2023/05/06 01:49:25;;;;;;;5.28;4.43;;;25.80;99.90;;;;;;5012424;28;20496;-44
2023/05/06 01:51:52;;;;;;;5.88;4.43;;;25.80;99.90;;;;;;5012316;28;20026;-44
2023/05/06 01:54:18;;;;;;;7.97;4.80;;;25.80;99.90;;;;;;5012293;28;20062;-44
2023/05/06 01:56:43;;;;;;;7.38;5.15;;;25.80;99.90;;;;;;5012113;28;20511;-44
2023/05/06 01:59:09;;;;;;;6.63;4.63;;;25.80;99.90;;;;;;5012273;28;20050;-44
2023/05/06 02:01:35;;;;;;;5.25;4.32;;;25.80;99.90;;;;;;5011936;28;20038;-45
2023/05/06 02:04:01;;;;;;;7.25;5.38;;;25.80;99.90;;;;;;5012721;28;20052;-44
2023/05/06 02:06:26;;;;;;;8.52;5.15;;;25.80;99.90;;;;;;5030329;28;20014;-44
2023/05/06 02:08:52;;;;;;;7.18;5.00;;;25.80;99.90;;;;;;5030227;28;20029;-44
2023/05/06 02:11:18;;;;;;;9.52;5.53;;;25.80;99.90;;;;;;5031608;28;20144;-45
2023/05/06 02:13:44;;;;;;;8.55;4.65;;;25.80;99.90;;;;;;5030061;28;20060;-44
2023/05/06 02:16:10;;;;;;;7.70;5.53;;;25.80;99.90;;;;;;5024802;28;20080;-44
2023/05/06 02:18:36;;;;;;;7.05;5.15;;;25.80;99.90;;;;;;5028128;28;20022;-44
2023/05/06 02:21:02;;;;;;;8.23;5.55;;;25.80;99.90;;;;;;5035163;28;20360;-47
2023/05/06 02:23:28;;;;;;;7.93;5.85;;;25.80;99.90;;;;;;5034912;28;20025;-44
2023/05/06 02:25:54;;;;;;;7.43;5.32;;;25.80;99.90;;;;;;5035205;28;20053;-44
2023/05/06 02:28:20;;;;;;;7.20;5.40;;;25.70;99.90;;;;;;5027209;28;20030;-44
2023/05/06 02:30:46;;;;;;;7.43;5.50;;;25.70;99.90;;;;;;5028094;28;20501;-45
2023/05/06 02:33:11;;;;;;;8.93;6.18;;;25.70;99.90;;;;;;5027322;28;20451;-45
2023/05/06 02:35:37;;;;;;;8.15;5.57;;;25.70;99.90;;;;;;5025087;28;20581;-46
2023/05/06 02:38:03;;;;;;;7.10;5.80;;;25.70;99.90;;;;;;5034653;28;20048;-46
2023/05/06 02:40:29;;;;;;;7.47;5.63;;;25.70;99.90;;;;;;5033648;28;20033;-45
2023/05/06 02:42:54;;;;;;;8.52;6.03;;;25.70;99.90;;;;;;5035052;28;20029;-45
2023/05/06 02:45:20;;;;;;;7.88;6.30;;;25.70;99.90;;;;;;5033795;28;20079;-45
2023/05/06 02:47:46;;;;;;;9.57;6.60;;;25.70;99.90;;;;;;5021128;28;20033;-45
2023/05/06 02:50:12;;;;;;;9.13;7.00;;;25.70;99.90;;;;;;5034458;28;20022;-45
2023/05/06 02:52:38;;;;;;;8.70;6.43;;;25.70;99.90;;;;;;5034411;28;20418;-45
2023/05/06 02:55:05;;;;;;;8.88;6.43;;;25.70;99.90;;;;;;5027587;28;20041;-45
2023/05/06 02:57:30;;;;;;;9.90;7.03;;;25.70;99.90;;;;;;5026871;28;20376;-45
2023/05/06 02:59:56;;;;;;;9.63;6.95;;;25.70;99.90;;;;;;5034664;28;20026;-45
2023/05/06 03:02:22;;;;;;;8.88;6.97;;;25.70;99.90;;;;;;5034466;28;20096;-45
2023/05/06 03:04:48;;;;;;;9.23;7.40;;;25.70;99.90;;;;;;5034228;28;20385;-45
2023/05/06 03:07:13;;;;;;;9.43;6.97;;;25.70;99.90;;;;;;5034414;28;20097;-45
2023/05/06 03:09:39;;;;;;;9.13;7.05;;;25.70;99.90;;;;;;5015775;28;20089;-45
2023/05/06 03:12:05;;;;;;;11.13;7.43;;;25.60;99.90;;;;;;5029195;28;20025;-45
2023/05/06 03:14:31;;;;;;;9.63;6.60;;;25.60;99.90;;;;;;5034291;28;20391;-45
2023/05/06 03:16:57;;;;;;;8.98;7.32;;;25.70;99.90;;;;;;5032790;28;20026;-45
2023/05/06 03:19:22;;;;;;;9.77;7.05;;;25.60;99.90;;;;;;5027448;28;20030;-45
2023/05/06 03:21:48;;;;;;;9.43;6.97;;;25.60;99.90;;;;;;5027603;28;20531;-45
2023/05/06 03:24:14;;;;;;;10.27;7.60;;;25.60;99.90;;;;;;5020335;28;20044;-45
2023/05/06 03:26:40;;;;;;;9.30;7.13;;;25.60;99.90;;;;;;5033916;28;20030;-45
2023/05/06 03:29:05;;;;;;;10.15;6.88;;;25.60;99.90;;;;;;5031531;28;20080;-45
2023/05/06 03:31:31;;;;;;;9.30;6.80;;;25.60;99.90;;;;;;5033722;28;20028;-45
2023/05/06 03:33:57;;;;;;;8.73;6.85;;;25.60;99.90;;;;;;5033242;28;20080;-45
2023/05/06 03:36:24;;;;;;;9.60;7.00;;;25.60;99.90;;;;;;5033862;28;20024;-45
2023/05/06 03:38:50;;;;;;;9.68;7.32;;;25.60;99.90;;;;;;5032888;28;20022;-45
2023/05/06 03:41:17;;;;;;;9.00;6.72;;;25.60;99.90;;;;;;5033791;28;20053;-45
2023/05/06 03:43:43;;;;;;;11.07;7.32;;;25.60;99.90;;;;;;5020386;28;20025;-45
2023/05/06 03:46:08;;;;;;;9.43;6.68;;;25.60;99.90;;;;;;5033640;28;20033;-46
2023/05/06 03:48:34;;;;;;;9.57;6.93;;;25.60;99.90;;;;;;5033705;28;20022;-46
2023/05/06 03:51:00;;;;;;;11.77;7.38;;;25.60;99.90;;;;;;5033604;28;20032;-46
2023/05/06 03:53:27;;;;;;;9.43;7.15;;;25.60;99.90;;;;;;5033207;28;20482;-45
2023/05/06 03:55:53;;;;;;;9.33;6.73;;;25.60;99.90;;;;;;5033560;28;20025;-46
2023/05/06 03:58:18;;;;;;;9.75;7.00;;;25.60;99.90;;;;;;5033196;28;20104;-45
2023/05/06 04:00:44;;;;;;;9.02;6.38;;;25.60;99.90;;;;;;5033280;28;20163;-45
2023/05/06 04:03:10;;;;;;;8.05;6.38;;;25.60;99.90;;;;;;5031940;28;20029;-45
2023/05/06 04:05:36;;;;;;;8.00;6.35;;;25.60;99.90;;;;;;5020107;28;20434;-45
2023/05/06 04:08:02;;;;;;;9.43;7.20;;;25.60;99.90;;;;;;5032820;28;20030;-45
2023/05/06 04:10:28;;;;;;;7.03;6.05;;;25.60;99.90;;;;;;5033147;28;20013;-45
2023/05/06 04:12:53;;;;;;;8.88;6.38;;;25.50;99.90;;;;;;5033032;28;20053;-45
2023/05/06 04:15:19;;;;;;;8.18;6.43;;;25.50;99.90;;;;;;5032742;28;20039;-44
2023/05/06 04:17:45;;;;;;;8.95;6.50;;;25.50;99.90;;;;;;5020262;28;20471;-45
2023/05/06 04:20:11;;;;;;;8.85;6.70;;;25.50;99.90;;;;;;5032774;28;20033;-45
2023/05/06 04:22:37;;;;;;;7.88;6.35;;;25.50;99.90;;;;;;5031665;28;20017;-45
2023/05/06 04:25:04;;;;;;;8.18;6.40;;;25.50;99.90;;;;;;5033005;28;20040;-45
2023/05/06 04:27:30;;;;;;;7.57;5.63;;;25.50;99.90;;;;;;5032807;28;20017;-45
2023/05/06 04:29:57;;;;;;;7.63;6.00;;;25.50;99.90;;;;;;5021127;28;20026;-45
2023/05/06 04:32:24;;;;;;;8.27;5.95;;;25.50;99.90;;;;;;5029840;28;20029;-45
2023/05/06 04:34:52;;;;;;;10.98;6.00;;;25.50;99.90;;;;;;5032729;28;20030;-45
2023/05/06 04:37:19;;;;;;;9.38;6.32;;;25.50;99.90;;;;;;5019055;28;20519;-45
2023/05/06 04:39:45;;;;;;;8.13;6.75;;;25.50;99.90;;;;;;5032248;28;20060;-45
2023/05/06 04:42:15;;;;;;;7.70;5.82;;;25.50;99.90;;;;;;5032438;28;20112;-45
2023/05/06 04:44:41;;;;;;;7.43;5.78;;;25.50;99.90;;;;;;5032610;28;20109;-45
2023/05/06 04:47:07;;;;;;;8.52;5.70;;;25.50;99.90;;;;;;5030860;28;20026;-46
2023/05/06 04:49:33;;;;;;;8.68;6.00;;;25.50;99.90;;;;;;5025058;28;20087;-46
2023/05/06 04:51:59;;;;;;;9.00;6.22;;;25.50;99.90;;;;;;5026992;28;20021;-45
2023/05/06 04:54:24;;;;;;;7.95;5.57;;;25.50;99.90;;;;;;5032346;28;20041;-46
2023/05/06 04:56:50;;;;;;;7.78;5.63;;;25.40;99.90;;;;;;5030803;28;20026;-45
2023/05/06 04:59:16;;;;;;;7.80;5.35;;;25.40;99.90;;;;;;5025364;28;20037;-46
2023/05/06 05:01:42;;;;;;;8.65;6.00;;;25.40;99.90;;;;;;5026014;28;20403;-46
2023/05/06 05:04:08;;;;;;;6.93;5.38;;;25.50;99.90;;;;;;5032148;28;20026;-45
2023/05/06 05:06:33;;;;;;;8.95;6.15;;;25.40;99.90;;;;;;5020360;28;20073;-47
2023/05/06 05:08:59;;;;;;;7.50;5.85;;;25.40;99.90;;;;;;5030861;28;20017;-45
2023/05/06 05:11:25;;;;;;;8.05;5.22;;;25.40;99.90;;;;;;5032199;28;20022;-45
2023/05/06 05:13:51;;;;;;;8.55;6.25;;;25.40;99.90;;;;;;5032152;28;20538;-45
2023/05/06 05:16:17;;;;;;;9.02;5.80;;;25.40;99.90;;;;;;5031867;28;20056;-45
2023/05/06 05:18:42;;;;;;;18.77;6.60;;;25.40;99.90;;;;;;5018638;28;20021;-45
2023/05/06 05:21:08;;;;;;;7.55;5.70;;;25.40;99.90;;;;;;5031909;28;20053;-46
2023/05/06 05:23:34;;;;;;;9.52;6.32;;;25.40;99.90;;;;;;5031875;28;20423;-45
2023/05/06 05:26:00;;;;;;;8.40;5.93;;;25.40;99.90;;;;;;5031819;28;20108;-45
2023/05/06 05:28:26;;;;;;;8.00;5.63;;;25.40;99.90;;;;;;5032013;28;20083;-46
2023/05/06 05:30:53;;;;;;;7.47;5.95;;;25.40;99.90;;;;;;5031627;28;20491;-45
2023/05/06 05:33:19;;;;;;;9.93;6.53;;;25.40;99.90;;;;;;5031726;28;20121;-45
2023/05/06 05:35:44;;;;;;;8.18;6.15;;;25.40;99.90;;;;;;5031774;28;20108;-45
2023/05/06 05:38:12;;;;;;;10.63;7.05;;;25.40;99.90;;;;;;5023079;28;20022;-45
2023/05/06 05:40:38;;;;;;;8.52;6.53;;;25.40;99.90;;;;;;5027520;28;20034;-45
2023/05/06 05:43:04;;;;;;;9.32;6.38;;;25.40;99.90;;;;;;5030585;28;20021;-45
2023/05/06 05:45:30;;;;;;;11.60;7.53;;;25.40;99.90;;;;;;5018255;28;20026;-45
2023/05/06 05:47:55;;;;;;;9.23;6.20;;;25.40;99.90;;;;;;5031509;28;20071;-45
2023/05/06 05:50:21;;;;;;;10.25;6.35;;;25.40;99.90;;;;;;5031674;28;20475;-44
2023/05/06 05:52:47;;;;;;;9.38;6.25;;;25.40;99.90;;;;;;5032137;28;20491;-44
2023/05/06 05:55:13;;;;;;;8.27;6.15;;;25.40;99.90;;;;;;5035423;28;20044;-46
2023/05/06 05:57:39;;;;;;;8.20;6.38;;;25.40;99.90;;;;;;5035218;28;20025;-45
2023/05/06 06:00:05;;;;;;;12.15;6.38;;;25.40;99.90;;;;;;5035978;28;20026;-45
2023/05/06 06:02:33;;;;;;;8.10;6.15;;;25.40;99.90;;;;;;5034805;28;20037;-46
2023/05/06 06:04:58;;;;;;;;;;;25.40;99.90;;;;;;5035992;28;20079;-45
2023/05/06 06:07:24;;;;;;;8.80;6.60;;;25.40;99.90;;;;;;5021706;28;19905;-45
2023/05/06 06:09:50;;;;;;;10.05;6.38;;;25.40;99.90;;;;;;5035312;28;20422;-45
2023/05/06 06:12:16;;;;;;;8.60;6.13;;;25.40;99.90;;;;;;5035123;28;20049;-45
2023/05/06 06:14:46;;;;;;;8.48;6.38;;;25.40;99.90;;;;;;5035282;28;20140;-44
2023/05/06 06:17:13;;;;;;;8.82;6.10;;;25.40;99.90;;;;;;5034697;28;20017;-44
2023/05/06 06:19:39;;;;;;;9.50;6.20;;;25.40;99.90;;;;;;5034052;28;20112;-44
2023/05/06 06:22:05;;;;;;;8.23;6.20;;;25.40;99.90;;;;;;5034563;28;20502;-45
2023/05/06 06:24:33;;;;;;;9.00;5.93;;;25.40;99.90;;;;;;5022753;28;20033;-45
2023/05/06 06:27:00;;;;;;;11.40;6.90;;;25.40;99.90;;;;;;5034939;28;20017;-45
2023/05/06 06:29:26;;;;;;;8.17;5.97;;;25.40;99.90;;;;;;5027336;28;20022;-45
2023/05/06 06:31:54;;;;;;;12.45;6.43;;;25.40;99.90;;;;;;5028247;28;20043;-44
2023/05/06 06:34:20;;;;;;;8.90;6.30;;;25.40;99.90;;;;;;5009627;28;20065;-45
2023/05/06 06:36:46;;;;;;;8.88;5.70;;;25.40;99.90;;;;;;5023150;28;20059;-45
2023/05/06 06:39:12;;;;;;;10.10;6.00;;;25.40;99.90;;;;;;5033508;28;20025;-44
2023/05/06 06:41:38;;;;;;;9.43;5.88;;;25.40;99.90;;;;;;5034937;28;20017;-45
2023/05/06 06:44:04;;;;;;;8.15;5.63;;;25.40;99.90;;;;;;5031281;28;20337;-46
2023/05/06 06:46:30;;;;;;;8.75;5.93;;;25.40;99.90;;;;;;5025206;28;20033;-45
2023/05/06 06:48:55;;;;;;;7.53;5.70;;;25.40;99.90;;;;;;5034468;28;20025;-45
2023/05/06 06:51:21;;;;;;;10.93;6.57;;;25.40;99.90;;;;;;5034686;28;20029;-45
2023/05/06 06:53:48;;;;;;;9.73;5.45;;;25.40;99.90;;;;;;5034247;28;20045;-44
2023/05/06 06:56:14;;;;;;;7.83;6.07;;;25.40;99.90;;;;;;5027065;28;20018;-45
2023/05/06 06:58:40;;;;;;;9.48;5.47;;;25.40;99.90;;;;;;5029093;28;20779;-44
2023/05/06 07:01:06;;;;;;;8.75;5.63;;;25.40;99.90;;;;;;5034503;28;20057;-45
2023/05/06 07:03:32;;;;;;;9.50;6.05;;;25.40;99.90;;;;;;5034385;28;20032;-45
2023/05/06 07:05:58;;;;;;;10.65;6.15;;;25.40;99.90;;;;;;5021229;28;20063;-46
2023/05/06 07:08:24;;;;;;;9.00;6.35;;;25.40;99.90;;;;;;5016730;28;20113;-45
2023/05/06 07:10:50;;;;;;;8.27;6.05;;;25.40;99.90;;;;;;5034123;28;20017;-45
2023/05/06 07:13:16;;;;;;;10.30;6.68;;;25.40;99.90;;;;;;5033907;28;20018;-45
2023/05/06 07:15:41;;;;;;;9.60;6.15;;;25.40;99.90;;;;;;5034063;28;20045;-45
2023/05/06 07:18:08;;;;;;;8.60;5.57;;;25.40;99.90;;;;;;5024628;28;20028;-45
2023/05/06 07:20:34;;;;;;;8.40;5.88;;;25.40;99.90;;;;;;5031201;28;20021;-45
2023/05/06 07:23:00;;;;;;;11.50;5.82;;;25.40;99.90;;;;;;5034005;28;20380;-45
2023/05/06 07:25:26;;;;;;;8.45;5.65;;;25.40;99.90;;;;;;5034146;28;20026;-46
2023/05/06 07:27:52;;;;;;;9.48;6.35;;;25.40;99.90;;;;;;5034076;28;20025;-45
2023/05/06 07:30:19;;;;;;;8.02;5.40;;;25.40;99.90;;;;;;5020245;28;20036;-47
2023/05/06 07:32:45;;;;;;;9.90;5.57;;;25.40;99.90;;;;;;5013591;28;20120;-46
2023/05/06 07:35:10;;;;;;;7.75;5.72;;;25.40;99.90;;;;;;5012630;28;20042;-46
2023/05/06 07:37:36;;;;;;;8.50;5.18;;;25.40;99.90;;;;;;5030522;28;20036;-45
2023/05/06 07:40:02;;;;;;;9.07;5.57;;;25.40;99.90;;;;;;5033611;28;20057;-45
2023/05/06 07:42:28;;;;;;;11.00;5.05;;;25.50;99.90;;;;;;5033352;28;20138;-45
2023/05/06 07:44:54;;;;;;;7.85;5.35;;;25.40;99.90;;;;;;5033591;28;20490;-46
2023/05/06 07:47:30;;;;;;;8.38;5.25;;;25.50;99.90;;;;;;5032377;28;20025;-46
2023/05/06 07:49:56;;;;;;;9.70;5.57;;;25.40;99.90;;;;;;5020049;28;20049;-45
2023/05/06 07:52:23;;;;;;;7.95;5.00;;;25.50;99.90;;;;;;5029101;28;20519;-45
2023/05/06 07:54:49;;;;;;;10.68;6.15;;;25.50;99.90;;;;;;5013451;28;20581;-46
2023/05/06 07:57:15;;;;;;;8.88;5.85;;;25.50;99.90;;;;;;5016974;28;20021;-45
2023/05/06 07:59:47;;;;;;;7.97;5.43;;;25.50;99.90;;;;;;5033480;28;20030;-46
2023/05/06 08:02:14;;;;;;;8.35;5.07;;;25.50;99.90;;;;;;5032536;28;20049;-45
2023/05/06 08:04:39;;;;;;;8.50;5.68;;;25.50;99.90;;;;;;5033235;28;20034;-45
2023/05/06 08:07:05;;;;;;;7.57;5.00;;;25.50;99.90;;;;;;5033095;28;20079;-46
2023/05/06 08:09:31;;;;;;;9.10;4.63;;;25.50;99.90;;;;;;5032931;28;20032;-45
2023/05/06 08:11:57;;;;;;;9.40;5.43;;;25.50;99.90;;;;;;5027521;28;20398;-45
2023/05/06 08:14:24;;;;;;;9.20;5.20;;;25.60;99.90;;;;;;5012918;28;20096;-45
2023/05/06 08:16:51;;;;;;;7.70;5.35;;;25.60;99.90;;;;;;5012519;28;20357;-45
2023/05/06 08:19:17;;;;;;;8.13;5.32;;;25.60;99.90;;;;;;5012040;28;20117;-45
2023/05/06 08:21:43;;;;;;;9.07;5.30;;;25.60;99.90;;;;;;5010964;28;20117;-44
2023/05/06 08:24:12;;;;;;;8.65;4.93;;;25.60;99.90;;;;;;5011655;28;20451;-45
2023/05/06 08:26:38;;;;;;;9.75;5.30;;;25.60;99.90;;;;;;5015083;28;20505;-45
2023/05/06 08:29:05;;;;;;;9.98;5.10;;;25.60;99.90;;;;;;5033190;28;20021;-45
2023/05/06 08:31:31;;;;;;;8.50;5.00;;;25.60;99.90;;;;;;5026165;28;20033;-44
2023/05/06 08:33:57;;;;;;;8.20;5.00;;;25.60;99.90;;;;;;5016474;28;20037;-46
2023/05/06 08:36:22;;;;;;;11.48;5.28;;;25.60;99.90;;;;;;5032608;28;20029;-46
2023/05/06 08:38:49;;;;;;;9.00;5.28;;;25.60;99.90;;;;;;5029876;28;20028;-46
2023/05/06 08:41:20;;;;;;;9.57;3.97;;;25.60;99.90;;;;;;5013025;28;20055;-46
2023/05/06 08:43:47;;;;;;;8.88;3.53;;;25.70;99.90;;;;;;5013792;28;20033;-46
2023/05/06 08:46:13;;;;;;;6.75;3.25;;;25.60;99.90;;;;;;5014157;28;20106;-46
2023/05/06 08:48:40;;;;;;;9.57;3.90;;;25.60;99.90;;;;;;5032525;28;20033;-45
2023/05/06 08:51:07;;;;;;;15.87;4.67;;;25.50;99.90;;;;;;5031117;28;20030;-45
2023/05/06 08:53:34;;;;;;;9.55;3.88;;;25.50;99.90;;;;;;5009559;28;20286;-46
2023/05/06 08:56:07;;;;;;;8.73;3.97;;;25.50;99.90;;;;;;5032419;28;20032;-46
2023/05/06 08:58:34;;;;;;;13.75;4.38;;;25.40;99.90;;;;;;5032241;28;20056;-45
2023/05/06 09:01:03;;;;;;;12.27;5.22;;;25.40;99.90;;;;;;5032142;28;20061;-45
2023/05/06 09:03:28;;;;;;;15.55;6.07;;;25.30;99.90;;;;;;5024511;28;20061;-44
2023/05/06 09:05:56;;;;;;;15.05;5.97;;;25.30;99.90;;;;;;5008251;28;20540;-45
2023/05/06 09:08:22;;;;;;;16.35;7.57;;;25.30;99.90;;;;;;5011239;28;20423;-44
2023/05/06 09:10:48;;;;;;;20.38;7.03;;;25.20;99.90;;;;;;5012188;28;20022;-46
2023/05/06 09:13:16;;;;;;;14.07;7.07;;;25.20;99.90;;;;;;5012208;28;20029;-46
2023/05/06 09:15:46;;;;;;;16.02;6.65;;;25.20;99.90;;;;;;5010070;28;20033;-46
2023/05/06 09:18:12;;;;;;;11.60;5.82;;;25.20;99.90;;;;;;5009923;28;20563;-46
2023/05/06 09:20:46;;;;;;;14.23;5.63;;;25.10;99.90;;;;;;5012528;28;20034;-46
2023/05/06 09:23:15;;;;;;;16.27;5.97;;;25.10;99.90;;;;;;5009781;28;20026;-46
2023/05/06 09:25:42;;;;;;;14.05;5.60;;;25.10;99.90;;;;;;5009687;28;20381;-46
2023/05/06 09:28:09;;;;;;;;;;;25.10;99.90;;;;;;5011389;28;20053;-46
2023/05/06 09:30:43;;;;;;;11.13;6.68;;;25.10;99.90;;;;;;5012272;28;19905;-45
2023/05/06 09:33:09;;;;;;;11.65;5.82;;;25.10;99.90;;;;;;5026969;28;20064;-47
2023/05/06 09:35:40;;;;;;;10.75;5.15;;;25.10;99.90;;;;;;5032213;28;20125;-46
2023/05/06 09:38:07;;;;;;;9.32;5.15;;;25.10;99.90;;;;;;5031514;28;20115;-46
2023/05/06 09:40:37;;;;;;;13.07;6.43;;;25.10;99.90;;;;;;5031659;28;20021;-48
2023/05/06 09:43:04;;;;;;;16.08;7.15;;;25.10;99.90;;;;;;5031651;28;20068;-46
2023/05/06 09:45:31;;;;;;;15.15;6.13;;;25.10;99.90;;;;;;5031756;28;20033;-49
2023/05/06 09:47:57;;;;;;;13.90;5.40;;;25.00;99.90;;;;;;5031726;28;20057;-48
2023/05/06 09:50:24;;;;;;;12.85;5.28;;;25.10;99.90;;;;;;5026213;28;20083;-53
2023/05/06 09:52:50;;;;;;;11.20;5.05;;;25.00;99.90;;;;;;5022761;28;20108;-50
2023/05/06 09:55:20;;;;;;;12.27;6.07;;;25.00;99.90;;;;;;5031387;28;20036;-47
2023/05/06 09:57:47;;;;;;;12.48;7.78;;;25.00;99.90;;;;;;5031683;28;20021;-50
2023/05/06 10:00:15;;;;;;;16.85;9.07;;;25.00;99.90;;;;;;5031268;28;20360;-45
2023/05/06 10:02:42;;;;;;;22.92;8.07;;;25.00;99.90;;;;;;5031474;28;20022;-45
2023/05/06 10:05:10;;;;;;;17.02;7.13;;;25.00;99.90;;;;;;5028214;28;20503;-48
2023/05/06 10:07:37;;;;;;;13.63;5.88;;;25.00;99.90;;;;;;5022961;28;20065;-43
2023/05/06 10:10:05;;;;;;;98.82;9.93;;;25.00;99.90;;;;;;5030300;28;20100;-43
2023/05/06 10:12:31;;;;;;;15.55;7.60;;;25.00;99.90;;;;;;5029824;28;20029;-47
2023/05/06 10:14:57;;;;;;;13.80;7.82;;;25.00;99.90;;;;;;5023539;28;20120;-47
2023/05/06 10:17:27;;;;;;;20.35;8.13;;;25.00;99.90;;;;;;5011450;28;20041;-47
2023/05/06 10:19:58;;;;;;;16.73;5.93;;;25.00;99.90;;;;;;5015781;28;20025;-47
2023/05/06 10:22:26;;;;;;;13.45;7.35;;;25.00;99.90;;;;;;5031414;28;20384;-46
2023/05/06 10:25:02;;;;;;;17.38;7.50;;;25.00;99.90;;;;;;5027484;28;20026;-46
2023/05/06 10:27:31;;;;;;;12.82;6.38;;;25.00;99.90;;;;;;5023219;28;20423;-46
2023/05/06 10:29:59;;;;;;;18.45;8.05;;;25.00;99.90;;;;;;5031457;28;20099;-46
2023/05/06 10:32:26;;;;;;;;;;;25.00;99.90;;;;;;5031741;28;20025;-47
2023/05/06 10:34:54;;;;;;;17.48;7.82;;;25.00;99.90;;;;;;5023308;28;19925;-47
2023/05/06 10:37:27;;;;;;;23.35;8.77;;;25.00;99.90;;;;;;5010222;28;20396;-47
2023/05/06 10:39:54;;;;;;;21.80;8.32;;;25.00;99.90;;;;;;5020482;28;20033;-47
2023/05/06 10:42:25;;;;;;;18.73;8.02;;;25.00;99.90;;;;;;5033994;28;20033;-46
2023/05/06 10:45:04;;;;;;;15.43;6.72;;;25.00;99.90;;;;;;5034570;28;20029;-47
2023/05/06 10:47:53;;;;;;;11.60;4.47;;;25.00;99.90;;;;;;5034832;28;20037;-54
2023/05/06 10:50:26;;;;;;;10.45;3.67;;;25.00;99.90;;;;;;5031290;28;20041;-47
2023/05/06 10:52:54;;;;;;;15.45;4.97;;;25.00;99.90;;;;;;5034205;28;20018;-47
2023/05/06 10:55:32;;;;;;;18.77;5.75;;;25.00;99.90;;;;;;5034223;28;20025;-47
2023/05/06 10:58:12;;;;;;;17.83;6.25;;;25.00;99.90;;;;;;5034595;28;20017;-47
2023/05/06 11:00:38;;;;;;;11.95;4.47;;;24.90;99.90;;;;;;5026680;28;20050;-47
2023/05/06 11:03:12;;;;;;;18.40;4.40;;;24.90;99.90;;;;;;5026325;28;20030;-47
2023/05/06 11:05:51;;;;;;;13.75;4.43;;;24.90;99.90;;;;;;5026819;28;20036;-48
2023/05/06 11:08:26;;;;;;;14.82;4.25;;;24.90;99.90;;;;;;5033372;28;20022;-47
2023/05/06 11:10:53;;;;;;;15.98;4.53;;;24.90;99.90;;;;;;5028427;28;20389;-47
2023/05/06 11:13:21;;;;;;;14.45;4.80;;;24.80;99.90;;;;;;5024864;28;20480;-47
2023/05/06 11:15:50;;;;;;;19.55;3.05;;;24.80;99.90;;;;;;5020764;28;20017;-47
2023/05/06 11:18:26;;;;;;;12.77;4.95;;;24.80;99.90;;;;;;5022659;28;20025;-47
2023/05/06 11:21:03;;;;;;;12.40;5.78;;;24.90;99.90;;;;;;5033651;28;20025;-47
2023/05/06 11:23:41;;;;;;;;;;;24.80;99.90;;;;;;5033769;28;20111;-47
2023/05/06 11:26:08;;;;;;;19.33;6.57;;;24.90;99.90;;;;;;5001005;28;19911;-47
2023/05/06 11:28:34;;;;;;;24.60;5.07;;;24.90;99.90;;;;;;5029276;28;20491;-47
2023/05/06 11:31:00;;;;;;;16.05;5.22;;;24.90;99.90;;;;;;5021040;28;20021;-47
2023/05/06 11:33:31;;;;;;;13.18;4.32;;;24.90;99.90;;;;;;5019530;28;20037;-46
2023/05/06 11:35:59;;;;;;;16.63;5.15;;;24.90;99.90;;;;;;5019873;28;20118;-45
2023/05/06 11:38:25;;;;;;;19.15;5.15;;;24.90;99.90;;;;;;5033680;28;20053;-46
2023/05/06 11:40:51;;;;;;;17.23;4.93;;;24.90;99.90;;;;;;5033576;28;20083;-45
2023/05/06 11:43:17;;;;;;;14.77;5.20;;;25.00;99.90;;;;;;5025829;28;20366;-45
2023/05/06 11:45:47;;;;;;;22.73;6.50;;;25.00;99.90;;;;;;5028584;28;20022;-46
2023/05/06 11:48:14;;;;;;;17.60;5.22;;;25.00;99.90;;;;;;5033866;28;20533;-45
2023/05/06 11:50:49;;;;;;;15.13;4.63;;;25.00;99.90;;;;;;5032287;28;20033;-46
2023/05/06 11:53:21;;;;;;;19.50;5.13;;;25.00;99.90;;;;;;5033540;28;20022;-46
2023/05/06 11:55:48;;;;;;;10.20;3.88;;;25.00;99.90;;;;;;5017295;28;20511;-46
2023/05/06 11:58:19;;;;;;;24.02;13.15;;;25.00;99.90;;;;;;5028995;28;20026;-45
2023/05/06 12:00:51;;;;;;;14.30;6.65;;;25.00;99.90;;;;;;5031318;28;20140;-46
2023/05/06 12:03:18;;;;;;;12.57;5.43;;;25.10;99.90;;;;;;5032730;28;20069;-48
2023/05/06 12:05:47;;;;;;;17.23;5.78;;;25.10;99.90;;;;;;5030005;28;20036;-49
2023/05/06 12:08:22;;;;;;;13.27;4.90;;;25.10;99.90;;;;;;5032076;28;20025;-47
2023/05/06 12:10:51;;;;;;;11.38;5.18;;;25.10;99.90;;;;;;5033070;28;20468;-48
2023/05/06 12:13:18;;;;;;;18.10;9.75;;;25.10;99.90;;;;;;5031734;28;20364;-47
2023/05/06 12:15:46;;;;;;;14.73;6.85;;;25.10;99.90;;;;;;5033085;28;20446;-49
2023/05/06 12:18:12;;;;;;;15.70;6.28;;;25.20;99.90;;;;;;5033102;28;20029;-48
2023/05/06 12:20:38;;;;;;;19.63;9.10;;;25.20;99.90;;;;;;5032248;28;20444;-46
2023/05/06 12:23:09;;;;;;;24.00;7.03;;;25.20;99.90;;;;;;5032400;28;20033;-46
2023/05/06 12:25:35;;;;;;;14.32;5.07;;;25.30;99.90;;;;;;5032538;28;20549;-48
2023/05/06 12:28:11;;;;;;;16.52;3.70;;;25.30;99.90;;;;;;5032153;28;20021;-48
2023/05/06 12:30:37;;;;;;;11.55;4.20;;;25.30;99.90;;;;;;5032048;28;20033;-48
2023/05/06 12:33:03;;;;;;;15.30;5.40;;;25.30;99.90;;;;;;5031013;28;20475;-49
2023/05/06 12:35:30;;;;;;;22.25;6.13;;;25.40;99.90;;;;;;5032625;28;20136;-48
2023/05/06 12:38:06;;;;;;;18.67;5.57;;;25.40;99.90;;;;;;5032323;28;20113;-48
2023/05/06 12:40:32;;;;;;;14.27;5.28;;;25.40;99.90;;;;;;5031147;28;20040;-47
2023/05/06 12:42:57;;;;;;;15.38;4.70;;;25.40;99.90;;;;;;5031220;28;20075;-47
2023/05/06 12:45:24;;;;;;;20.40;9.93;;;25.50;99.90;;;;;;5024957;28;20113;-48